PGT98BE LTFJ-LTFO
Flight info
| Callsign | PGT98BE |
|---|---|
| Flight time | 1h 25m |
| Altitude | 39000 |
| Route | VICEN UT380 ASMAP UL333 LATGA UT363 ESB UT364 ILHAN UW71 TBN UN37 ODZOL |
| Aircraft | A320/M-SDE3FGHIRWY/LB1 |
Departure
| Time | 2026-04-18 09:51 |
|---|---|
| Airport | Istanbul Sabiha Gökçen International Airport (LTFJ) |
Arrival
| Time | 2026-04-18 11:16 |
|---|---|
| Airport | Rize–Artvin Airport (LTFO) |
| Time | Latitude | Longitude | Altitude | Speed | Heading |
|---|---|---|---|---|---|
| 2026-04-18 09:27 | 40.90889 | 29.31880 | 311 ft | 0 kts | 244° |
| 2026-04-18 09:41 | 40.90891 | 29.31885 | 311 ft | 3 kts | 244° |
| 2026-04-18 09:41 | 40.90904 | 29.31915 | 311 ft | 4 kts | 233° |
| 2026-04-18 09:41 | 40.90922 | 29.31939 | 309 ft | 4 kts | 197° |
| 2026-04-18 09:41 | 40.90937 | 29.31940 | 309 ft | 0 kts | 154° |
| 2026-04-18 09:43 | 40.90913 | 29.31955 | 309 ft | 13 kts | 153° |
| 2026-04-18 09:44 | 40.90839 | 29.32036 | 311 ft | 14 kts | 116° |
| 2026-04-18 09:44 | 40.90767 | 29.32101 | 311 ft | 12 kts | 155° |
| 2026-04-18 09:44 | 40.90698 | 29.32116 | 311 ft | 9 kts | 219° |
| 2026-04-18 09:44 | 40.90674 | 29.32045 | 309 ft | 8 kts | 244° |
| 2026-04-18 09:45 | 40.90650 | 29.31979 | 311 ft | 9 kts | 244° |
| 2026-04-18 09:45 | 40.90617 | 29.31923 | 309 ft | 7 kts | 198° |
| 2026-04-18 09:45 | 40.90558 | 29.31952 | 311 ft | 12 kts | 154° |
| 2026-04-18 09:45 | 40.90485 | 29.31992 | 311 ft | 11 kts | 171° |
| 2026-04-18 09:46 | 40.90438 | 29.31934 | 311 ft | 9 kts | 246° |
| 2026-04-18 09:46 | 40.90409 | 29.31853 | 310 ft | 11 kts | 243° |
| 2026-04-18 09:46 | 40.90371 | 29.31754 | 311 ft | 13 kts | 245° |
| 2026-04-18 09:46 | 40.90325 | 29.31626 | 311 ft | 18 kts | 244° |
| 2026-04-18 09:47 | 40.90263 | 29.31460 | 310 ft | 23 kts | 244° |
| 2026-04-18 09:47 | 40.90189 | 29.31257 | 311 ft | 27 kts | 244° |
| 2026-04-18 09:47 | 40.90100 | 29.31015 | 311 ft | 31 kts | 244° |
| 2026-04-18 09:47 | 40.90007 | 29.30764 | 311 ft | 30 kts | 244° |
| 2026-04-18 09:48 | 40.89915 | 29.30512 | 311 ft | 29 kts | 244° |
| 2026-04-18 09:48 | 40.89823 | 29.30265 | 309 ft | 31 kts | 243° |
| 2026-04-18 09:48 | 40.89732 | 29.30017 | 308 ft | 30 kts | 244° |
| 2026-04-18 09:48 | 40.89639 | 29.29760 | 308 ft | 31 kts | 244° |
| 2026-04-18 09:49 | 40.89541 | 29.29497 | 303 ft | 29 kts | 244° |
| 2026-04-18 09:49 | 40.89477 | 29.29323 | 304 ft | 11 kts | 244° |
| 2026-04-18 09:49 | 40.89434 | 29.29257 | 303 ft | 9 kts | 206° |
| 2026-04-18 09:49 | 40.89380 | 29.29263 | 306 ft | 8 kts | 157° |
| 2026-04-18 09:50 | 40.89331 | 29.29295 | 302 ft | 9 kts | 153° |
| 2026-04-18 09:50 | 40.89282 | 29.29344 | 303 ft | 8 kts | 116° |
| 2026-04-18 09:50 | 40.89294 | 29.29398 | 303 ft | 5 kts | 62° |
| 2026-04-18 09:50 | 40.89328 | 29.29487 | 305 ft | 31 kts | 63° |
| 2026-04-18 09:51 | 40.89539 | 29.30063 | 309 ft | 104 kts | 64° |
| 2026-04-18 09:51 | 40.89945 | 29.31153 | 367 ft | 154 kts | 61° |
| 2026-04-18 09:51 | 40.90400 | 29.32412 | 1114 ft | 151 kts | 63° |
| 2026-04-18 09:51 | 40.90850 | 29.33651 | 1895 ft | 151 kts | 62° |
| 2026-04-18 09:52 | 40.91326 | 29.34944 | 2437 ft | 165 kts | 62° |
| 2026-04-18 09:52 | 40.91866 | 29.36399 | 2778 ft | 187 kts | 62° |
| 2026-04-18 09:52 | 40.92479 | 29.38047 | 3129 ft | 212 kts | 62° |
| 2026-04-18 09:52 | 40.93162 | 29.39898 | 3649 ft | 234 kts | 63° |
| 2026-04-18 09:53 | 40.93471 | 29.42039 | 4519 ft | 249 kts | 94° |
| 2026-04-18 09:53 | 40.92721 | 29.44180 | 5352 ft | 272 kts | 128° |
| 2026-04-18 09:53 | 40.91129 | 29.45634 | 6323 ft | 284 kts | 150° |
| 2026-04-18 09:53 | 40.89268 | 29.46613 | 7228 ft | 290 kts | 157° |
| 2026-04-18 09:54 | 40.87336 | 29.47458 | 8240 ft | 295 kts | 157° |
| 2026-04-18 09:54 | 40.85377 | 29.48360 | 9237 ft | 301 kts | 155° |
| 2026-04-18 09:54 | 40.83409 | 29.49374 | 10200 ft | 308 kts | 154° |
| 2026-04-18 09:54 | 40.81365 | 29.50538 | 10659 ft | 332 kts | 152° |
| 2026-04-18 09:55 | 40.79356 | 29.52180 | 11203 ft | 345 kts | 138° |
| 2026-04-18 09:55 | 40.77658 | 29.54431 | 12000 ft | 348 kts | 125° |
| 2026-04-18 09:55 | 40.76361 | 29.57121 | 12893 ft | 347 kts | 114° |
| 2026-04-18 09:55 | 40.75514 | 29.60104 | 13684 ft | 349 kts | 103° |
| 2026-04-18 09:56 | 40.74898 | 29.63178 | 14359 ft | 353 kts | 103° |
| 2026-04-18 09:56 | 40.74268 | 29.66339 | 15032 ft | 357 kts | 103° |
| 2026-04-18 09:56 | 40.73660 | 29.69539 | 15702 ft | 361 kts | 99° |
| 2026-04-18 09:56 | 40.73405 | 29.72842 | 16367 ft | 364 kts | 90° |
| 2026-04-18 09:57 | 40.73356 | 29.76209 | 17041 ft | 369 kts | 90° |
| 2026-04-18 09:57 | 40.73301 | 29.79611 | 17701 ft | 374 kts | 90° |
| 2026-04-18 09:57 | 40.73239 | 29.83055 | 18312 ft | 378 kts | 91° |
| 2026-04-18 09:57 | 40.73173 | 29.86556 | 18783 ft | 386 kts | 91° |
| 2026-04-18 09:58 | 40.73103 | 29.90120 | 19272 ft | 392 kts | 91° |
| 2026-04-18 09:58 | 40.73031 | 29.93731 | 19853 ft | 395 kts | 91° |
| 2026-04-18 09:58 | 40.72957 | 29.97366 | 20446 ft | 398 kts | 92° |
| 2026-04-18 09:58 | 40.72881 | 30.01038 | 21007 ft | 402 kts | 92° |
| 2026-04-18 09:59 | 40.72770 | 30.04739 | 21584 ft | 404 kts | 96° |
| 2026-04-18 09:59 | 40.72278 | 30.08353 | 22137 ft | 406 kts | 107° |
| 2026-04-18 09:59 | 40.71383 | 30.11900 | 22659 ft | 409 kts | 111° |
| 2026-04-18 10:00 | 40.69501 | 30.18998 | 23781 ft | 412 kts | 110° |
| 2026-04-18 10:00 | 40.68554 | 30.22575 | 24227 ft | 415 kts | 111° |
| 2026-04-18 10:00 | 40.67602 | 30.26172 | 24671 ft | 417 kts | 110° |
| 2026-04-18 10:00 | 40.66728 | 30.29820 | 25116 ft | 420 kts | 104° |
| 2026-04-18 10:01 | 40.66267 | 30.33634 | 25527 ft | 424 kts | 97° |
| 2026-04-18 10:01 | 40.65955 | 30.37510 | 25948 ft | 426 kts | 97° |
| 2026-04-18 10:01 | 40.65638 | 30.41401 | 26365 ft | 428 kts | 97° |
| 2026-04-18 10:01 | 40.65314 | 30.45309 | 26773 ft | 431 kts | 97° |
| 2026-04-18 10:02 | 40.64988 | 30.49243 | 27182 ft | 433 kts | 97° |
| 2026-04-18 10:02 | 40.64658 | 30.53203 | 27578 ft | 436 kts | 97° |
| 2026-04-18 10:02 | 40.64331 | 30.57135 | 27952 ft | 439 kts | 97° |
| 2026-04-18 10:02 | 40.63994 | 30.61150 | 28373 ft | 441 kts | 97° |
| 2026-04-18 10:03 | 40.63651 | 30.65176 | 28763 ft | 444 kts | 97° |
| 2026-04-18 10:03 | 40.63303 | 30.69226 | 29127 ft | 447 kts | 98° |
| 2026-04-18 10:03 | 40.62703 | 30.73237 | 29520 ft | 448 kts | 107° |
| 2026-04-18 10:03 | 40.61861 | 30.77199 | 29861 ft | 450 kts | 107° |
| 2026-04-18 10:04 | 40.61014 | 30.81183 | 30172 ft | 453 kts | 107° |
| 2026-04-18 10:04 | 40.60163 | 30.85189 | 30481 ft | 455 kts | 107° |
| 2026-04-18 10:04 | 40.59314 | 30.89209 | 30753 ft | 458 kts | 107° |
| 2026-04-18 10:04 | 40.58468 | 30.93213 | 31000 ft | 461 kts | 106° |
| 2026-04-18 10:05 | 40.57609 | 30.97275 | 31320 ft | 462 kts | 106° |
| 2026-04-18 10:05 | 40.56743 | 31.01352 | 31674 ft | 462 kts | 105° |
| 2026-04-18 10:05 | 40.55877 | 31.05418 | 32080 ft | 461 kts | 105° |
| 2026-04-18 10:05 | 40.55012 | 31.09464 | 32527 ft | 459 kts | 105° |
| 2026-04-18 10:06 | 40.54144 | 31.13507 | 32894 ft | 460 kts | 105° |
| 2026-04-18 10:06 | 40.53270 | 31.17559 | 33252 ft | 460 kts | 105° |
| 2026-04-18 10:06 | 40.52397 | 31.21605 | 33659 ft | 459 kts | 105° |
| 2026-04-18 10:06 | 40.51530 | 31.25638 | 34001 ft | 459 kts | 104° |
| 2026-04-18 10:07 | 40.50666 | 31.29673 | 34327 ft | 459 kts | 105° |
| 2026-04-18 10:07 | 40.49798 | 31.33698 | 34658 ft | 458 kts | 105° |
| 2026-04-18 10:07 | 40.48923 | 31.37734 | 34899 ft | 460 kts | 105° |
| 2026-04-18 10:07 | 40.48039 | 31.41786 | 35111 ft | 462 kts | 106° |
| 2026-04-18 10:08 | 40.47164 | 31.45790 | 35401 ft | 462 kts | 106° |
| 2026-04-18 10:08 | 40.46274 | 31.49855 | 35581 ft | 465 kts | 106° |
| 2026-04-18 10:08 | 40.45380 | 31.53944 | 35814 ft | 466 kts | 106° |
| 2026-04-18 10:08 | 40.44491 | 31.58026 | 36165 ft | 464 kts | 106° |
| 2026-04-18 10:09 | 40.43600 | 31.62097 | 36452 ft | 465 kts | 107° |
| 2026-04-18 10:09 | 40.42705 | 31.66177 | 36733 ft | 465 kts | 107° |
| 2026-04-18 10:09 | 40.41811 | 31.70247 | 37019 ft | 464 kts | 107° |
| 2026-04-18 10:09 | 40.40913 | 31.74321 | 37281 ft | 465 kts | 107° |
| 2026-04-18 10:10 | 40.40012 | 31.78395 | 37534 ft | 465 kts | 107° |
| 2026-04-18 10:10 | 40.39108 | 31.82471 | 37781 ft | 465 kts | 107° |
| 2026-04-18 10:10 | 40.38204 | 31.86546 | 38021 ft | 465 kts | 108° |
| 2026-04-18 10:10 | 40.37296 | 31.90620 | 38269 ft | 465 kts | 108° |
| 2026-04-18 10:11 | 40.36392 | 31.94693 | 38491 ft | 466 kts | 108° |
| 2026-04-18 10:11 | 40.35487 | 31.98772 | 38662 ft | 466 kts | 108° |
| 2026-04-18 10:11 | 40.34575 | 32.02863 | 38760 ft | 467 kts | 108° |
| 2026-04-18 10:12 | 40.32740 | 32.11043 | 38784 ft | 467 kts | 107° |
| 2026-04-18 10:12 | 40.31070 | 32.19268 | 38776 ft | 467 kts | 105° |
| 2026-04-18 10:13 | 40.29513 | 32.27465 | 38771 ft | 466 kts | 105° |
| 2026-04-18 10:13 | 40.27922 | 32.35695 | 38772 ft | 466 kts | 106° |
| 2026-04-18 10:14 | 40.26290 | 32.43914 | 38763 ft | 467 kts | 106° |
| 2026-04-18 10:14 | 40.24630 | 32.52133 | 38764 ft | 467 kts | 107° |
| 2026-04-18 10:15 | 40.22966 | 32.60349 | 38772 ft | 466 kts | 107° |
| 2026-04-18 10:15 | 40.21309 | 32.68553 | 38766 ft | 466 kts | 107° |
| 2026-04-18 10:16 | 40.19672 | 32.76697 | 38750 ft | 466 kts | 107° |
| 2026-04-18 10:16 | 40.18003 | 32.84896 | 38764 ft | 466 kts | 107° |
| 2026-04-18 10:17 | 40.16351 | 32.93093 | 38771 ft | 467 kts | 103° |
| 2026-04-18 10:17 | 40.15976 | 32.97318 | 38771 ft | 469 kts | 92° |
| 2026-04-18 10:17 | 40.16183 | 33.01576 | 38770 ft | 470 kts | 81° |
| 2026-04-18 10:17 | 40.16973 | 33.05726 | 38771 ft | 471 kts | 70° |
| 2026-04-18 10:18 | 40.18310 | 33.09627 | 38767 ft | 471 kts | 60° |
| 2026-04-18 10:18 | 40.21550 | 33.17081 | 38744 ft | 473 kts | 60° |
| 2026-04-18 10:19 | 40.24782 | 33.24595 | 38738 ft | 474 kts | 60° |
| 2026-04-18 10:19 | 40.28031 | 33.32133 | 38733 ft | 476 kts | 60° |
| 2026-04-18 10:20 | 40.31290 | 33.39684 | 38729 ft | 477 kts | 61° |
| 2026-04-18 10:20 | 40.34549 | 33.47263 | 38736 ft | 478 kts | 61° |
| 2026-04-18 10:21 | 40.37776 | 33.54835 | 38744 ft | 478 kts | 61° |
| 2026-04-18 10:21 | 40.41028 | 33.62472 | 38751 ft | 479 kts | 61° |
| 2026-04-18 10:22 | 40.44211 | 33.70151 | 38748 ft | 479 kts | 67° |
| 2026-04-18 10:22 | 40.46403 | 33.78393 | 38751 ft | 478 kts | 73° |
| 2026-04-18 10:23 | 40.48473 | 33.86698 | 38749 ft | 478 kts | 73° |
| 2026-04-18 10:23 | 40.50540 | 33.95006 | 38742 ft | 479 kts | 72° |
| 2026-04-18 10:24 | 40.52913 | 34.03202 | 38746 ft | 480 kts | 69° |
| 2026-04-18 10:24 | 40.55506 | 34.11228 | 38747 ft | 480 kts | 68° |
| 2026-04-18 10:25 | 40.58095 | 34.19318 | 38746 ft | 480 kts | 69° |
| 2026-04-18 10:25 | 40.60596 | 34.27457 | 38743 ft | 480 kts | 70° |
| 2026-04-18 10:26 | 40.63061 | 34.35625 | 38746 ft | 479 kts | 70° |
| 2026-04-18 10:26 | 40.65531 | 34.43784 | 38745 ft | 479 kts | 70° |
| 2026-04-18 10:27 | 40.68009 | 34.51935 | 38742 ft | 480 kts | 70° |
| 2026-04-18 10:27 | 40.70484 | 34.60099 | 38740 ft | 480 kts | 70° |
| 2026-04-18 10:28 | 40.72939 | 34.68222 | 38739 ft | 480 kts | 70° |
| 2026-04-18 10:28 | 40.75400 | 34.76398 | 38735 ft | 480 kts | 70° |
| 2026-04-18 10:29 | 40.77830 | 34.84599 | 38736 ft | 480 kts | 71° |
| 2026-04-18 10:29 | 40.79827 | 34.91434 | 38737 ft | 480 kts | 71° |
| 2026-04-18 10:30 | 40.82219 | 34.99657 | 38740 ft | 480 kts | 71° |
| 2026-04-18 10:30 | 40.84612 | 35.07885 | 38743 ft | 480 kts | 71° |
| 2026-04-18 10:31 | 40.87010 | 35.16110 | 38738 ft | 479 kts | 71° |
| 2026-04-18 10:31 | 40.89386 | 35.24282 | 38736 ft | 479 kts | 71° |
| 2026-04-18 10:32 | 40.91766 | 35.32516 | 38719 ft | 480 kts | 71° |
| 2026-04-18 10:32 | 40.94148 | 35.40777 | 38721 ft | 481 kts | 71° |
| 2026-04-18 10:33 | 40.96528 | 35.49046 | 38732 ft | 481 kts | 71° |
| 2026-04-18 10:33 | 40.98913 | 35.57337 | 38734 ft | 481 kts | 71° |
| 2026-04-18 10:34 | 41.01286 | 35.65620 | 38737 ft | 481 kts | 71° |
| 2026-04-18 10:34 | 41.03663 | 35.73907 | 38750 ft | 482 kts | 71° |
| 2026-04-18 10:35 | 41.06102 | 35.82172 | 38749 ft | 481 kts | 71° |
| 2026-04-18 10:35 | 41.08547 | 35.90426 | 38761 ft | 481 kts | 71° |
| 2026-04-18 10:36 | 41.10948 | 35.98701 | 38761 ft | 480 kts | 72° |
| 2026-04-18 10:36 | 41.13252 | 36.06953 | 38766 ft | 480 kts | 72° |
| 2026-04-18 10:37 | 41.15552 | 36.15285 | 38778 ft | 481 kts | 72° |
| 2026-04-18 10:37 | 41.17881 | 36.23619 | 38788 ft | 481 kts | 72° |
| 2026-04-18 10:38 | 41.20204 | 36.31943 | 38792 ft | 481 kts | 72° |
| 2026-04-18 10:38 | 41.22523 | 36.40288 | 38804 ft | 481 kts | 72° |
| 2026-04-18 10:39 | 41.24812 | 36.48590 | 38818 ft | 482 kts | 73° |
| 2026-04-18 10:39 | 41.26155 | 36.57253 | 38796 ft | 473 kts | 92° |
| 2026-04-18 10:40 | 41.25727 | 36.65841 | 38784 ft | 468 kts | 100° |
| 2026-04-18 10:40 | 41.25083 | 36.74476 | 38788 ft | 469 kts | 99° |
| 2026-04-18 10:41 | 41.24458 | 36.83128 | 38791 ft | 470 kts | 99° |
| 2026-04-18 10:41 | 41.23814 | 36.91774 | 38802 ft | 470 kts | 100° |
| 2026-04-18 10:42 | 41.23163 | 37.00358 | 38789 ft | 470 kts | 100° |
| 2026-04-18 10:42 | 41.22500 | 37.09006 | 38786 ft | 470 kts | 100° |
| 2026-04-18 10:43 | 41.21829 | 37.17648 | 38796 ft | 470 kts | 100° |
| 2026-04-18 10:43 | 41.21155 | 37.26295 | 38796 ft | 470 kts | 100° |
| 2026-04-18 10:44 | 41.20511 | 37.34936 | 38797 ft | 470 kts | 100° |
| 2026-04-18 10:44 | 41.19883 | 37.43580 | 38778 ft | 470 kts | 100° |
| 2026-04-18 10:45 | 41.19245 | 37.52209 | 38785 ft | 470 kts | 101° |
| 2026-04-18 10:45 | 41.18659 | 37.60846 | 38775 ft | 471 kts | 99° |
| 2026-04-18 10:46 | 41.18110 | 37.69492 | 38771 ft | 469 kts | 101° |
| 2026-04-18 10:46 | 41.17389 | 37.78032 | 38762 ft | 468 kts | 102° |
| 2026-04-18 10:47 | 41.16599 | 37.86618 | 38776 ft | 468 kts | 102° |
| 2026-04-18 10:47 | 41.15861 | 37.95203 | 38785 ft | 468 kts | 101° |
| 2026-04-18 10:48 | 41.15191 | 38.03793 | 38798 ft | 468 kts | 101° |
| 2026-04-18 10:48 | 41.14515 | 38.12385 | 38798 ft | 468 kts | 101° |
| 2026-04-18 10:49 | 41.13825 | 38.20972 | 38777 ft | 468 kts | 102° |
| 2026-04-18 10:49 | 41.13112 | 38.29565 | 38778 ft | 469 kts | 102° |
| 2026-04-18 10:50 | 41.12399 | 38.38112 | 38781 ft | 469 kts | 102° |
| 2026-04-18 10:50 | 41.11686 | 38.46716 | 38775 ft | 469 kts | 102° |
| 2026-04-18 10:51 | 41.10970 | 38.55331 | 38753 ft | 470 kts | 102° |
| 2026-04-18 10:51 | 41.10243 | 38.63943 | 38744 ft | 471 kts | 102° |
| 2026-04-18 10:52 | 41.09490 | 38.72567 | 38752 ft | 471 kts | 102° |
| 2026-04-18 10:52 | 41.08705 | 38.81193 | 38739 ft | 471 kts | 102° |
| 2026-04-18 10:53 | 41.07920 | 38.89821 | 38714 ft | 472 kts | 103° |
| 2026-04-18 10:53 | 41.07134 | 38.98452 | 38731 ft | 472 kts | 103° |
| 2026-04-18 10:54 | 41.06338 | 39.07033 | 38479 ft | 471 kts | 103° |
| 2026-04-18 10:54 | 41.05939 | 39.11344 | 38223 ft | 470 kts | 103° |
| 2026-04-18 10:54 | 41.05542 | 39.15645 | 37945 ft | 470 kts | 103° |
| 2026-04-18 10:54 | 41.05151 | 39.19937 | 37672 ft | 469 kts | 103° |
| 2026-04-18 10:55 | 41.04762 | 39.24227 | 37385 ft | 468 kts | 103° |
| 2026-04-18 10:55 | 41.04370 | 39.28509 | 36653 ft | 469 kts | 104° |
| 2026-04-18 10:55 | 41.03972 | 39.32813 | 35851 ft | 471 kts | 104° |
| 2026-04-18 10:55 | 41.03564 | 39.37121 | 35029 ft | 472 kts | 105° |
| 2026-04-18 10:56 | 41.03153 | 39.41454 | 34147 ft | 475 kts | 105° |
| 2026-04-18 10:56 | 41.02747 | 39.45771 | 33623 ft | 469 kts | 106° |
| 2026-04-18 10:56 | 41.02347 | 39.50058 | 32795 ft | 468 kts | 106° |
| 2026-04-18 10:56 | 41.01950 | 39.54311 | 32231 ft | 463 kts | 106° |
| 2026-04-18 10:57 | 41.01554 | 39.58525 | 31627 ft | 458 kts | 106° |
| 2026-04-18 10:57 | 41.01161 | 39.62689 | 31020 ft | 453 kts | 106° |
| 2026-04-18 10:57 | 41.00771 | 39.66801 | 30466 ft | 448 kts | 106° |
| 2026-04-18 10:57 | 41.00388 | 39.70816 | 29901 ft | 443 kts | 106° |
| 2026-04-18 10:58 | 41.00063 | 39.74874 | 29284 ft | 444 kts | 101° |
| 2026-04-18 10:58 | 41.00192 | 39.78979 | 28724 ft | 450 kts | 90° |
| 2026-04-18 10:58 | 41.00867 | 39.83045 | 28150 ft | 456 kts | 79° |
| 2026-04-18 10:58 | 41.02064 | 39.86942 | 27580 ft | 457 kts | 71° |
| 2026-04-18 10:59 | 41.03391 | 39.90753 | 27020 ft | 453 kts | 71° |
| 2026-04-18 10:59 | 41.04698 | 39.94524 | 26477 ft | 448 kts | 71° |
| 2026-04-18 10:59 | 41.05987 | 39.98266 | 25929 ft | 444 kts | 71° |
| 2026-04-18 10:59 | 41.07256 | 40.01973 | 25415 ft | 439 kts | 71° |
| 2026-04-18 11:00 | 41.08510 | 40.05656 | 24851 ft | 437 kts | 71° |
| 2026-04-18 11:00 | 41.09753 | 40.09319 | 24327 ft | 434 kts | 71° |
| 2026-04-18 11:00 | 41.10989 | 40.12957 | 23788 ft | 432 kts | 70° |
| 2026-04-18 11:00 | 41.12224 | 40.16583 | 23207 ft | 430 kts | 70° |
| 2026-04-18 11:01 | 41.13451 | 40.20191 | 22631 ft | 426 kts | 70° |
| 2026-04-18 11:01 | 41.14661 | 40.23750 | 22157 ft | 421 kts | 70° |
| 2026-04-18 11:01 | 41.15843 | 40.27227 | 21663 ft | 416 kts | 70° |
| 2026-04-18 11:02 | 41.18192 | 40.34171 | 20681 ft | 409 kts | 70° |
| 2026-04-18 11:02 | 41.19347 | 40.37607 | 20169 ft | 405 kts | 70° |
| 2026-04-18 11:02 | 41.20529 | 40.40988 | 19703 ft | 404 kts | 65° |
| 2026-04-18 11:02 | 41.21961 | 40.44192 | 19206 ft | 402 kts | 62° |
| 2026-04-18 11:03 | 41.23398 | 40.47361 | 18725 ft | 399 kts | 62° |
| 2026-04-18 11:03 | 41.24825 | 40.50519 | 18245 ft | 397 kts | 62° |
| 2026-04-18 11:03 | 41.26243 | 40.53662 | 17731 ft | 395 kts | 61° |
| 2026-04-18 11:03 | 41.27647 | 40.56776 | 17255 ft | 391 kts | 61° |
| 2026-04-18 11:04 | 41.29036 | 40.59860 | 16791 ft | 387 kts | 61° |
| 2026-04-18 11:04 | 41.30396 | 40.62879 | 16338 ft | 383 kts | 61° |
| 2026-04-18 11:04 | 41.31757 | 40.65909 | 15891 ft | 380 kts | 61° |
| 2026-04-18 11:04 | 41.33110 | 40.68922 | 15436 ft | 377 kts | 61° |
| 2026-04-18 11:05 | 41.34449 | 40.71907 | 14979 ft | 374 kts | 61° |
| 2026-04-18 11:05 | 41.35763 | 40.74839 | 14779 ft | 364 kts | 61° |
| 2026-04-18 11:05 | 41.37051 | 40.77719 | 14375 ft | 361 kts | 61° |
| 2026-04-18 11:05 | 41.38332 | 40.80588 | 13940 ft | 360 kts | 61° |
| 2026-04-18 11:06 | 41.39613 | 40.83463 | 13500 ft | 360 kts | 63° |
| 2026-04-18 11:06 | 41.40607 | 40.86506 | 13009 ft | 357 kts | 76° |
| 2026-04-18 11:06 | 41.41137 | 40.89726 | 12537 ft | 355 kts | 83° |
| 2026-04-18 11:06 | 41.41573 | 40.92949 | 12079 ft | 352 kts | 83° |
| 2026-04-18 11:07 | 41.42012 | 40.96155 | 11605 ft | 350 kts | 83° |
| 2026-04-18 11:07 | 41.42442 | 40.99296 | 11144 ft | 348 kts | 83° |
| 2026-04-18 11:07 | 41.42874 | 41.02464 | 10671 ft | 347 kts | 83° |
| 2026-04-18 11:07 | 41.43302 | 41.05614 | 10255 ft | 342 kts | 83° |
| 2026-04-18 11:08 | 41.43508 | 41.08644 | 10107 ft | 315 kts | 98° |
| 2026-04-18 11:08 | 41.43052 | 41.11369 | 9920 ft | 293 kts | 116° |
| 2026-04-18 11:08 | 41.42053 | 41.13663 | 9401 ft | 284 kts | 133° |
| 2026-04-18 11:08 | 41.40610 | 41.15386 | 8861 ft | 277 kts | 148° |
| 2026-04-18 11:09 | 41.38998 | 41.16794 | 8289 ft | 275 kts | 147° |
| 2026-04-18 11:09 | 41.37387 | 41.18204 | 7647 ft | 278 kts | 147° |
| 2026-04-18 11:09 | 41.35817 | 41.19584 | 7468 ft | 262 kts | 147° |
| 2026-04-18 11:09 | 41.34288 | 41.20746 | 7281 ft | 247 kts | 161° |
| 2026-04-18 11:10 | 41.32622 | 41.20971 | 7094 ft | 240 kts | 187° |
| 2026-04-18 11:10 | 41.31057 | 41.20158 | 6891 ft | 247 kts | 214° |
| 2026-04-18 11:10 | 41.29743 | 41.18669 | 6516 ft | 249 kts | 220° |
| 2026-04-18 11:10 | 41.28436 | 41.17137 | 6096 ft | 251 kts | 219° |
| 2026-04-18 11:11 | 41.27126 | 41.15604 | 5641 ft | 251 kts | 220° |
| 2026-04-18 11:11 | 41.25837 | 41.14033 | 5225 ft | 251 kts | 229° |
| 2026-04-18 11:11 | 41.24947 | 41.12085 | 4822 ft | 250 kts | 250° |
| 2026-04-18 11:11 | 41.24396 | 41.09913 | 4421 ft | 246 kts | 252° |
| 2026-04-18 11:12 | 41.23868 | 41.07831 | 4114 ft | 227 kts | 252° |
| 2026-04-18 11:12 | 41.23386 | 41.05946 | 4064 ft | 206 kts | 252° |
| 2026-04-18 11:12 | 41.22929 | 41.04159 | 3830 ft | 204 kts | 252° |
| 2026-04-18 11:12 | 41.22480 | 41.02403 | 3491 ft | 196 kts | 253° |
| 2026-04-18 11:13 | 41.22051 | 41.00718 | 3107 ft | 190 kts | 253° |
| 2026-04-18 11:13 | 41.21642 | 40.99120 | 2923 ft | 174 kts | 253° |
| 2026-04-18 11:13 | 41.21251 | 40.97613 | 2456 ft | 169 kts | 253° |
| 2026-04-18 11:13 | 41.20876 | 40.96156 | 1964 ft | 165 kts | 252° |
| 2026-04-18 11:14 | 41.20518 | 40.94763 | 1620 ft | 153 kts | 252° |
| 2026-04-18 11:14 | 41.20187 | 40.93475 | 1354 ft | 142 kts | 251° |
| 2026-04-18 11:14 | 41.19882 | 40.92284 | 1116 ft | 133 kts | 251° |
| 2026-04-18 11:14 | 41.19591 | 40.91151 | 908 ft | 126 kts | 251° |
| 2026-04-18 11:15 | 41.19314 | 40.90058 | 703 ft | 124 kts | 251° |
| 2026-04-18 11:15 | 41.19037 | 40.88993 | 503 ft | 124 kts | 249° |
| 2026-04-18 11:15 | 41.18758 | 40.87912 | 306 ft | 125 kts | 251° |
| 2026-04-18 11:15 | 41.18475 | 40.86820 | 115 ft | 126 kts | 251° |
| 2026-04-18 11:16 | 41.18211 | 40.85760 | 29 ft | 111 kts | 251° |
| 2026-04-18 11:16 | 41.18004 | 40.84959 | 24 ft | 68 kts | 251° |
| 2026-04-18 11:16 | 41.17901 | 40.84567 | 24 ft | 31 kts | 251° |
| 2026-04-18 11:16 | 41.17838 | 40.84412 | 24 ft | 13 kts | 200° |
| 2026-04-18 11:17 | 41.17754 | 40.84442 | 27 ft | 9 kts | 162° |
| 2026-04-18 11:17 | 41.17700 | 40.84466 | 29 ft | 8 kts | 162° |
| 2026-04-18 11:17 | 41.17651 | 40.84488 | 28 ft | 7 kts | 156° |
| 2026-04-18 11:17 | 41.17632 | 40.84535 | 27 ft | 6 kts | 84° |
| 2026-04-18 11:18 | 41.17621 | 40.84576 | 29 ft | 4 kts | 147° |
| 2026-04-18 11:18 | 41.17593 | 40.84585 | 26 ft | 4 kts | 167° |
| 2026-04-18 11:18 | 41.17586 | 40.84587 | 26 ft | 0 kts | 166° |